Time;durP1;ratioP1;P1;durP2;ratioP2;P2;SDS_P1;SDS_P2;PMS_P1;PMS_P2;Temp;Humidity;BMP_temperature;BMP_pressure;BME280_temperature;BME280_humidity;BME280_pressure;Samples;Min_cycle;Max_cycle;Signal;HPM_P1;HPM_P2
2021/08/03 00:02:07;;;;;;;;;8.50;7.75;;;;;18.67;68.47;100616.88;5016379;28;60182;-60
2021/08/03 00:04:42;;;;;;;;;7.00;6.75;;;;;18.66;68.56;100617.06;5016846;28;45269;-60
2021/08/03 00:07:12;;;;;;;;;10.75;7.00;;;;;18.65;68.47;100618.06;5017878;28;49206;-60
2021/08/03 00:09:41;;;;;;;;;7.75;7.75;;;;;18.62;68.54;100610.47;5016346;28;45295;-60
2021/08/03 00:12:07;;;;;;;;;8.00;7.00;;;;;18.63;68.63;100612.94;4999776;28;45457;-60
2021/08/03 00:14:33;;;;;;;;;7.00;7.00;;;;;18.63;68.61;100612.09;5017730;28;45897;-60
2021/08/03 00:16:59;;;;;;;;;6.75;6.75;;;;;18.63;68.37;100617.44;5000306;28;45420;-60
2021/08/03 00:19:25;;;;;;;;;5.00;5.00;;;;;18.61;68.49;100606.16;5015764;28;68849;-61
2021/08/03 00:21:51;;;;;;;;;8.00;8.00;;;;;18.60;68.79;100601.84;5018027;28;45495;-60
2021/08/03 00:24:16;;;;;;;;;8.50;7.25;;;;;18.60;68.14;100604.50;5016407;28;51800;-59
2021/08/03 00:26:42;;;;;;;;;9.00;7.00;;;;;18.58;68.37;100599.38;5017779;28;45443;-60
2021/08/03 00:29:07;;;;;;;;;9.75;7.00;;;;;18.56;68.33;100596.06;5000087;28;45886;-60
2021/08/03 00:31:32;;;;;;;;;6.00;6.00;;;;;18.52;68.69;100600.97;5015660;28;66440;-60
2021/08/03 00:33:58;;;;;;;;;7.75;7.75;;;;;18.49;68.58;100598.69;5016396;28;45940;-60
2021/08/03 00:36:26;;;;;;;;;9.50;7.00;;;;;18.48;68.44;100597.03;5017542;28;45446;-59
2021/08/03 00:38:53;;;;;;;;;6.00;6.00;;;;;18.48;68.56;100589.03;5017737;28;45450;-61
2021/08/03 00:41:20;;;;;;;;;8.75;6.00;;;;;18.45;68.51;100588.56;5017748;28;45451;-60
2021/08/03 00:43:46;;;;;;;;;7.25;6.75;;;;;18.43;68.65;100580.78;5016280;28;46039;-60
2021/08/03 00:46:11;;;;;;;;;7.00;6.00;;;;;18.41;68.84;100579.31;5016382;28;73286;-60
2021/08/03 00:48:36;;;;;;;;;8.25;7.00;;;;;18.39;68.58;100584.84;5016386;28;69220;-58
2021/08/03 00:51:02;;;;;;;;;6.00;5.00;;;;;18.37;68.91;100581.53;5015294;28;69256;-60
2021/08/03 00:53:30;;;;;;;;;8.00;7.25;;;;;18.37;68.58;100584.19;5017250;28;46064;-60
2021/08/03 00:55:55;;;;;;;;;7.75;6.00;;;;;18.35;68.47;100575.56;5017305;28;45942;-60
2021/08/03 00:58:21;;;;;;;;;6.50;6.00;;;;;18.34;68.69;100576.59;4998763;28;66084;-61
2021/08/03 01:00:46;;;;;;;;;7.50;5.50;;;;;18.32;68.68;100568.78;5017254;28;45508;-60
2021/08/03 01:03:11;;;;;;;;;6.00;6.00;;;;;18.31;68.88;100567.13;5016140;28;71980;-60
2021/08/03 01:05:41;;;;;;;;;8.25;7.50;;;;;18.29;68.79;100568.34;5016086;28;72173;-61
2021/08/03 01:08:30;;;;;;;;;8.25;7.75;;;;;18.28;68.98;100570.16;5017200;28;45230;-60
2021/08/03 01:11:08;;;;;;;;;8.00;7.50;;;;;18.27;68.57;100565.88;5016817;28;50487;-60
2021/08/03 01:13:41;;;;;;;;;8.00;6.75;;;;;18.26;68.83;100566.06;5016796;28;53346;-60
2021/08/03 01:16:28;;;;;;;;;9.50;8.00;;;;;18.24;68.64;100571.56;5015959;28;45957;-61
2021/08/03 01:19:46;;;;;;;;;10.75;8.00;;;;;18.21;68.94;100567.44;5016972;28;45239;-60
2021/08/03 01:22:14;;;;;;;;;10.50;7.00;;;;;18.20;69.02;100560.47;4991829;28;45492;-60
2021/08/03 01:25:11;;;;;;;;;7.75;7.50;;;;;18.20;68.81;100549.81;5016673;28;46144;-60
2021/08/03 01:28:07;;;;;;;;;8.00;7.00;;;;;18.19;69.02;100552.69;4947864;28;45856;-59
2021/08/03 01:30:33;;;;;;;;;5.00;5.00;;;;;18.15;68.94;100541.56;5017057;28;45249;-61
2021/08/03 01:32:58;;;;;;;;;7.25;7.00;;;;;18.15;68.89;100546.91;5016784;28;45349;-60
2021/08/03 01:35:24;;;;;;;;;7.00;6.00;;;;;18.16;69.22;100551.19;4998407;28;45299;-61
2021/08/03 01:37:49;;;;;;;;;6.25;4.75;;;;;18.16;69.29;100547.75;5016213;28;45364;-60
2021/08/03 01:40:15;;;;;;;;;7.50;5.50;;;;;18.14;69.25;100547.09;4999085;28;45744;-60
2021/08/03 01:42:43;;;;;;;;;6.25;5.25;;;;;18.11;69.42;100534.97;5015544;28;45488;-59
2021/08/03 01:45:10;;;;;;;;;6.25;6.00;;;;;18.11;69.05;100540.31;5015362;28;46290;-60
2021/08/03 01:47:35;;;;;;;;;9.50;7.50;;;;;18.13;69.32;100538.28;5016558;28;45798;-60
2021/08/03 01:50:00;;;;;;;;;8.75;6.00;;;;;18.14;69.04;100545.25;5015665;28;66802;-60
2021/08/03 01:52:27;;;;;;;;;5.50;5.00;;;;;18.15;68.88;100538.09;4999118;28;45568;-60
2021/08/03 01:54:52;;;;;;;;;7.00;5.50;;;;;18.13;68.99;100535.63;5016450;28;46189;-60
2021/08/03 01:57:17;;;;;;;;;5.50;4.75;;;;;18.09;69.07;100531.69;5016445;28;45295;-61
2021/08/03 01:59:43;;;;;;;;;7.25;6.25;;;;;18.09;69.16;100540.50;4998228;28;53103;-60
2021/08/03 02:02:08;;;;;;;;;6.75;6.50;;;;;18.07;68.90;100539.03;5014360;28;69113;-60
2021/08/03 02:04:34;;;;;;;;;6.75;6.25;;;;;18.06;68.96;100534.72;5014244;28;70548;-61
2021/08/03 02:06:59;;;;;;;;;8.50;8.25;;;;;18.05;69.61;100531.25;4998515;28;45182;-60
2021/08/03 02:09:24;;;;;;;;;6.00;6.00;;;;;18.04;69.20;100534.91;5014782;28;48740;-60
2021/08/03 02:11:50;;;;;;;;;6.75;5.00;;;;;18.01;69.37;100539.78;5015416;28;68702;-60
2021/08/03 02:14:16;;;;;;;;;6.25;6.00;;;;;18.00;69.48;100533.63;4998502;28;45233;-61
2021/08/03 02:16:41;;;;;;;;;7.50;6.25;;;;;18.00;69.26;100544.25;5016268;28;45237;-60
2021/08/03 02:19:07;;;;;;;;;7.50;4.00;;;;;18.01;69.24;100539.78;5014734;28;45263;-60
2021/08/03 02:21:32;;;;;;;;;6.75;6.00;;;;;18.00;69.27;100546.13;5015154;28;70474;-60
2021/08/03 02:23:58;;;;;;;;;6.50;6.00;;;;;18.01;69.20;100555.75;5016022;28;45440;-61
2021/08/03 02:26:23;;;;;;;;;4.50;4.50;;;;;18.00;69.35;100554.09;5015164;28;70031;-60
2021/08/03 02:28:49;;;;;;;;;6.00;6.00;;;;;17.99;69.50;100547.09;5014869;28;45416;-61
2021/08/03 02:31:23;;;;;;;;;6.00;6.00;;;;;17.98;69.59;100545.44;5015177;28;66637;-59
2021/08/03 02:33:52;;;;;;;;;5.25;4.50;;;;;18.00;69.65;100548.78;4998862;28;46890;-60
2021/08/03 02:36:20;;;;;;;;;6.00;6.00;;;;;18.00;69.67;100546.13;5015890;28;52943;-60
2021/08/03 02:38:47;;;;;;;;;7.25;7.25;;;;;18.00;69.76;100538.94;5002183;28;45462;-60
2021/08/03 02:41:13;;;;;;;;;7.50;6.25;;;;;18.01;69.60;100540.59;5018408;28;45507;-60
2021/08/03 02:43:38;;;;;;;;;6.00;5.75;;;;;18.01;69.38;100535.28;5017185;28;75609;-60
2021/08/03 02:46:04;;;;;;;;;8.00;6.00;;;;;18.03;69.70;100537.75;5019369;28;45423;-60
2021/08/03 02:48:31;;;;;;;;;5.00;4.25;;;;;18.02;69.63;100541.41;5018324;28;45365;-60
2021/08/03 02:50:56;;;;;;;;;5.25;5.25;;;;;18.00;69.94;100546.91;5017376;28;45436;-60
2021/08/03 02:53:38;;;;;;;;;6.00;3.75;;;;;17.98;69.95;100535.63;5019061;28;45367;-60
2021/08/03 02:56:08;;;;;;;;;5.75;5.75;;;;;17.99;70.29;100533.81;5019017;28;48610;-60
2021/08/03 02:58:41;;;;;;;;;8.25;5.75;;;;;18.01;69.84;100537.13;5017060;28;45336;-60
2021/08/03 03:01:08;;;;;;;;;7.50;6.50;;;;;18.02;69.99;100528.13;5019289;28;45301;-60
2021/08/03 03:03:34;;;;;;;;;6.00;6.00;;;;;18.02;69.83;100522.78;5018741;28;53866;-60
2021/08/03 03:06:02;;;;;;;;;8.00;7.75;;;;;18.02;69.96;100520.97;5017911;28;46015;-60
2021/08/03 03:08:28;;;;;;;;;6.75;6.50;;;;;18.05;70.06;100527.75;5017694;28;47293;-60
2021/08/03 03:10:54;;;;;;;;;8.75;6.25;;;;;18.06;70.14;100521.41;5019239;28;45545;-60
2021/08/03 03:13:26;;;;;;;;;6.00;6.00;;;;;18.05;70.37;100530.41;5017804;28;45406;-60
2021/08/03 03:15:52;;;;;;;;;8.00;6.50;;;;;18.06;70.42;100521.41;5017510;28;48671;-60
2021/08/03 03:18:18;;;;;;;;;7.50;6.75;;;;;18.08;70.72;100514.09;5018058;28;69750;-60
2021/08/03 03:20:44;;;;;;;;;7.50;6.75;;;;;18.09;70.47;100515.72;5001297;28;45429;-60
2021/08/03 03:23:09;;;;;;;;;7.75;7.00;;;;;18.12;70.31;100520.69;5016510;28;71824;-60
2021/08/03 03:25:35;;;;;;;;;7.50;6.50;;;;;18.16;70.38;100515.81;5000027;28;73122;-60
2021/08/03 03:28:02;;;;;;;;;7.00;6.00;;;;;18.16;70.27;100508.66;5016480;28;68285;-60
2021/08/03 03:30:27;;;;;;;;;7.50;7.50;;;;;18.18;70.17;100517.28;5017561;28;45591;-60
2021/08/03 03:32:53;;;;;;;;;9.00;8.00;;;;;18.19;70.24;100515.47;5017143;28;53935;-60
2021/08/03 03:35:20;;;;;;;;;9.50;7.75;;;;;18.16;70.41;100511.31;5016979;28;45544;-60
2021/08/03 03:37:46;;;;;;;;;18.00;17.00;;;;;18.17;70.64;100517.47;5017504;28;45264;-60
2021/08/03 03:40:15;;;;;;;;;15.75;14.00;;;;;18.18;70.60;100503.97;5017343;28;45361;-60
2021/08/03 03:42:40;;;;;;;;;16.25;14.00;;;;;18.20;70.68;100501.97;5017181;28;46367;-60
2021/08/03 03:45:06;;;;;;;;;15.50;15.50;;;;;18.20;70.72;100507.28;5016214;28;72177;-60
2021/08/03 03:47:32;;;;;;;;;17.50;14.00;;;;;18.17;70.36;100507.66;5016919;28;46938;-60
2021/08/03 03:50:16;;;;;;;;;14.75;12.00;;;;;18.15;70.20;100504.34;5000898;28;45584;-61
2021/08/03 03:52:53;;;;;;;;;17.00;13.25;;;;;18.15;70.36;100503.53;5016808;28;53335;-61
2021/08/03 03:55:20;;;;;;;;;15.00;14.50;;;;;18.14;70.33;100512.53;5017023;28;45425;-60
2021/08/03 03:57:46;;;;;;;;;19.00;14.75;;;;;18.13;70.40;100511.69;5000230;28;49137;-60
2021/08/03 04:00:13;;;;;;;;;14.00;13.00;;;;;18.13;70.70;100516.19;4999334;28;69848;-60
2021/08/03 04:02:39;;;;;;;;;17.00;13.75;;;;;18.13;70.82;100516.19;5016863;28;45946;-60
2021/08/03 04:05:04;;;;;;;;;14.50;13.25;;;;;18.12;70.33;100511.91;5000542;28;45447;-60
2021/08/03 04:07:30;;;;;;;;;18.25;14.00;;;;;18.12;70.37;100523.34;5000179;28;45449;-60
2021/08/03 04:10:07;;;;;;;;;14.50;12.75;;;;;18.11;70.24;100527.00;5018242;28;45508;-59
2021/08/03 04:12:32;;;;;;;;;13.25;12.50;;;;;18.10;70.54;100522.69;5016738;28;45442;-61
2021/08/03 04:14:58;;;;;;;;;14.00;13.00;;;;;18.12;70.60;100533.97;5015691;28;73269;-60
2021/08/03 04:17:23;;;;;;;;;12.50;11.00;;;;;18.10;70.35;100533.34;5018103;28;45265;-61
2021/08/03 04:19:49;;;;;;;;;14.25;12.00;;;;;18.07;70.43;100534.53;5017952;28;45522;-60
2021/08/03 04:22:14;;;;;;;;;18.25;17.25;;;;;18.07;70.37;100533.69;5017936;28;45245;-60
2021/08/03 04:24:39;;;;;;;;;13.75;12.75;;;;;18.08;70.22;100530.88;5016763;28;73186;-60
2021/08/03 04:27:05;;;;;;;;;13.25;12.50;;;;;18.07;70.01;100523.91;5016998;28;66533;-60
2021/08/03 04:29:30;;;;;;;;;12.25;11.50;;;;;18.07;69.99;100525.72;5015582;28;70422;-59
2021/08/03 04:31:55;;;;;;;;;11.50;10.50;;;;;18.06;69.93;100532.06;5016717;28;70806;-60
2021/08/03 04:34:21;;;;;;;;;15.00;12.00;;;;;18.03;69.78;100535.91;5016537;28;73199;-60
2021/08/03 04:36:46;;;;;;;;;10.50;8.75;;;;;18.01;70.05;100523.84;5017261;28;54117;-61
2021/08/03 04:39:12;;;;;;;;;12.50;10.75;;;;;18.00;70.07;100524.84;5017659;28;45467;-60
2021/08/03 04:41:40;;;;;;;;;12.50;9.25;;;;;17.97;70.01;100528.66;5017609;28;45305;-60
2021/08/03 04:44:05;;;;;;;;;9.00;9.00;;;;;17.94;70.02;100521.88;5017535;28;45973;-60
2021/08/03 04:46:31;;;;;;;;;13.75;11.25;;;;;17.92;70.08;100526.56;5017529;28;45423;-60
2021/08/03 04:48:56;;;;;;;;;11.50;10.75;;;;;17.90;70.00;100527.75;5017380;28;45380;-60
2021/08/03 04:51:22;;;;;;;;;9.50;9.00;;;;;17.88;70.26;100529.75;5016393;28;72354;-60
2021/08/03 04:53:47;;;;;;;;;12.00;10.00;;;;;17.81;70.35;100524.38;5016373;28;69900;-60
2021/08/03 04:56:12;;;;;;;;;9.00;8.50;;;;;17.76;70.42;100530.22;5016549;28;67077;-60
2021/08/03 04:58:39;;;;;;;;;11.00;9.75;;;;;17.71;70.50;100519.34;5015646;28;70930;-59
2021/08/03 05:01:04;;;;;;;;;10.75;8.25;;;;;17.68;70.62;100519.69;5017285;28;46086;-60
2021/08/03 05:03:30;;;;;;;;;14.25;11.25;;;;;17.69;70.11;100523.16;5017247;28;45277;-60
2021/08/03 05:05:55;;;;;;;;;8.25;8.25;;;;;17.64;70.74;100521.88;5015338;28;57574;-61
2021/08/03 05:08:20;;;;;;;;;7.25;6.75;;;;;17.63;70.87;100520.22;5016399;28;66650;-60
2021/08/03 05:10:46;;;;;;;;;6.75;6.00;;;;;17.61;70.80;100508.97;5016027;28;73314;-60
2021/08/03 05:13:11;;;;;;;;;12.25;8.00;;;;;17.63;70.82;100508.78;5014919;28;66380;-60
2021/08/03 05:15:37;;;;;;;;;10.00;8.00;;;;;17.65;70.35;100504.13;5017264;28;45557;-60
2021/08/03 05:18:02;;;;;;;;;7.50;6.50;;;;;17.64;70.66;100507.78;5016771;28;45186;-60
2021/08/03 05:20:28;;;;;;;;;9.50;8.75;;;;;17.64;70.79;100503.28;5015936;28;72149;-60
2021/08/03 05:22:53;;;;;;;;;10.00;8.50;;;;;17.65;70.46;100502.28;5015997;28;73121;-60
2021/08/03 05:25:18;;;;;;;;;10.00;9.25;;;;;17.61;70.63;100498.34;5016141;28;68215;-60
2021/08/03 05:27:44;;;;;;;;;12.00;9.00;;;;;17.63;71.05;100498.97;5016624;28;46667;-60
2021/08/03 05:30:10;;;;;;;;;10.00;9.75;;;;;17.65;70.71;100504.94;5015885;28;68696;-60
2021/08/03 05:32:35;;;;;;;;;7.00;7.00;;;;;17.64;70.81;100499.81;5016790;28;45329;-60
2021/08/03 05:35:01;;;;;;;;;13.00;9.00;;;;;17.68;70.77;100514.38;5016896;28;45274;-60
2021/08/03 05:37:26;;;;;;;;;11.25;9.00;;;;;17.72;70.90;100518.31;5016817;28;45322;-60
2021/08/03 05:39:51;;;;;;;;;9.75;9.00;;;;;17.73;70.90;100527.09;5014486;28;70962;-60
2021/08/03 05:42:17;;;;;;;;;8.00;7.00;;;;;17.72;70.95;100523.66;5016624;28;45775;-60
2021/08/03 05:44:42;;;;;;;;;8.00;8.00;;;;;17.73;70.91;100527.09;5015763;28;65870;-61
2021/08/03 05:47:08;;;;;;;;;6.25;6.25;;;;;17.73;70.97;100522.63;5016436;28;45584;-60
2021/08/03 05:49:33;;;;;;;;;8.00;5.75;;;;;17.73;71.27;100517.31;5016212;28;49958;-61
2021/08/03 05:52:00;;;;;;;;;7.25;6.00;;;;;17.76;71.38;100518.78;5015495;28;72070;-60
2021/08/03 05:54:26;;;;;;;;;5.25;5.00;;;;;17.80;70.83;100525.38;5016781;28;45428;-60
2021/08/03 05:56:51;;;;;;;;;4.25;4.00;;;;;17.83;70.44;100522.34;5016293;28;48786;-60
2021/08/03 05:59:16;;;;;;;;;4.25;4.25;;;;;17.86;70.00;100524.63;5013916;28;71547;-60
2021/08/03 06:01:42;;;;;;;;;4.50;4.00;;;;;17.88;69.50;100519.97;5016059;28;49963;-60
2021/08/03 06:04:07;;;;;;;;;7.75;4.00;;;;;17.91;69.49;100522.25;5015450;28;63722;-60
2021/08/03 06:06:40;;;;;;;;;5.75;5.00;;;;;17.92;69.11;100515.94;5016223;28;49155;-60
2021/08/03 06:09:12;;;;;;;;;5.75;5.00;;;;;17.95;69.32;100525.34;5014805;28;46286;-60
2021/08/03 06:11:44;;;;;;;;;8.00;6.00;;;;;18.00;69.44;100532.81;5018213;28;45439;-60
2021/08/03 06:14:10;;;;;;;;;6.00;6.00;;;;;18.02;69.79;100542.25;5018800;28;45325;-60
2021/08/03 06:16:35;;;;;;;;;7.25;5.75;;;;;18.04;69.80;100534.91;5018701;28;45406;-60
2021/08/03 06:19:02;;;;;;;;;6.00;5.00;;;;;18.04;69.94;100534.06;5018647;28;75007;-60
2021/08/03 06:21:28;;;;;;;;;4.00;4.00;;;;;18.05;69.66;100531.25;5019634;28;45372;-59
2021/08/03 06:23:53;;;;;;;;;6.75;5.50;;;;;18.07;69.94;100541.69;5017447;28;68136;-60
2021/08/03 06:26:19;;;;;;;;;6.50;6.50;;;;;18.07;69.92;100539.03;5018468;28;70000;-60
2021/08/03 06:28:47;;;;;;;;;6.75;5.75;;;;;18.08;69.49;100546.81;5018224;28;46138;-59
2021/08/03 06:31:13;;;;;;;;;7.50;5.00;;;;;18.08;69.37;100551.31;5019200;28;55142;-60
2021/08/03 06:33:38;;;;;;;;;5.50;5.00;;;;;18.08;69.32;100552.16;5018424;28;45352;-60
2021/08/03 06:36:04;;;;;;;;;6.00;6.00;;;;;18.08;68.84;100546.00;5018570;28;68074;-60
2021/08/03 06:38:29;;;;;;;;;6.00;5.25;;;;;18.07;68.60;100555.81;5018640;28;71275;-61
2021/08/03 06:41:03;;;;;;;;;8.00;4.50;;;;;18.05;68.67;100547.19;5019293;28;45411;-60
2021/08/03 06:43:30;;;;;;;;;3.25;3.25;;;;;18.05;68.82;100552.50;5018414;28;45362;-59
2021/08/03 06:46:07;;;;;;;;;5.00;5.00;;;;;18.08;68.54;100552.16;5018303;28;45367;-59
2021/08/03 06:48:46;;;;;;;;;6.00;4.75;;;;;18.11;68.34;100545.63;5019137;28;53499;-60
2021/08/03 06:51:13;;;;;;;;;3.50;3.50;;;;;18.13;68.45;100550.75;5018190;28;45502;-60
2021/08/03 06:53:42;;;;;;;;;5.00;3.00;;;;;18.14;68.19;100550.56;5018164;28;45353;-60
2021/08/03 06:56:08;;;;;;;;;5.00;5.00;;;;;18.13;68.25;100550.75;5019143;28;45471;-60
2021/08/03 06:58:57;;;;;;;;;4.00;3.50;;;;;18.13;68.38;100548.91;5000464;28;45489;-60
2021/08/03 07:01:30;;;;;;;;;4.00;3.25;;;;;18.13;68.41;100548.09;5010854;28;45729;-60
2021/08/03 07:04:00;;;;;;;;;4.75;4.00;;;;;18.16;68.54;100559.19;5018183;28;45426;-60
2021/08/03 07:06:25;;;;;;;;;5.00;3.50;;;;;18.23;67.86;100562.75;5017681;28;46355;-60
2021/08/03 07:08:51;;;;;;;;;3.00;3.00;;;;;18.26;67.31;100566.06;5018724;28;45434;-59
2021/08/03 07:11:16;;;;;;;;;6.50;4.00;;;;;18.27;67.56;100573.88;5018719;28;45295;-60
2021/08/03 07:13:42;;;;;;;;;6.00;5.00;;;;;18.29;67.21;100571.81;5000049;28;69287;-59
2021/08/03 07:16:07;;;;;;;;;6.25;6.00;;;;;18.30;67.37;100573.47;5017531;28;69095;-60
2021/08/03 07:18:32;;;;;;;;;5.50;4.25;;;;;18.30;67.71;100572.66;5016694;28;59829;-59
2021/08/03 07:20:58;;;;;;;;;8.25;7.25;;;;;18.32;67.64;100567.97;5016419;28;70025;-60
2021/08/03 07:23:23;;;;;;;;;6.00;5.00;;;;;18.32;67.51;100575.94;5016594;28;63017;-60
2021/08/03 07:25:50;;;;;;;;;6.25;6.25;;;;;18.33;67.19;100574.94;5018779;28;45284;-60
2021/08/03 07:28:16;;;;;;;;;4.50;4.50;;;;;18.32;66.73;100567.97;5018412;28;46415;-59
2021/08/03 07:30:44;;;;;;;;;7.50;5.00;;;;;18.32;67.24;100566.13;5018176;28;49977;-60
2021/08/03 07:33:13;;;;;;;;;7.25;5.50;;;;;18.35;67.00;100572.91;5018504;28;45390;-60
2021/08/03 07:35:42;;;;;;;;;4.75;4.00;;;;;18.37;66.77;100576.22;5018323;28;45321;-60
2021/08/03 07:38:07;;;;;;;;;4.25;4.25;;;;;18.40;66.17;100570.53;5018479;28;45483;-60
2021/08/03 07:40:33;;;;;;;;;4.00;4.00;;;;;18.43;66.25;100575.47;5017790;28;68379;-60
2021/08/03 07:42:59;;;;;;;;;6.25;4.75;;;;;18.45;66.07;100573.44;5018070;28;51570;-60
2021/08/03 07:45:24;;;;;;;;;3.00;3.00;;;;;18.47;66.51;100574.09;5018116;28;50021;-60
2021/08/03 07:47:50;;;;;;;;;2.25;2.25;;;;;18.54;66.06;100584.78;5017172;28;73563;-60
2021/08/03 07:50:15;;;;;;;;;5.25;5.00;;;;;18.55;65.43;100586.44;5017133;28;72734;-60
2021/08/03 07:52:40;;;;;;;;;5.00;4.00;;;;;18.50;65.24;100573.72;5016235;28;66396;-60
2021/08/03 07:55:06;;;;;;;;;3.25;3.00;;;;;18.60;65.37;100591.19;5000317;28;45520;-60
2021/08/03 07:57:31;;;;;;;;;2.75;2.75;;;;;18.64;65.50;100589.81;5016814;28;50055;-60
2021/08/03 07:59:57;;;;;;;;;4.00;3.00;;;;;18.64;65.07;100587.97;5017021;28;69041;-60
2021/08/03 08:02:24;;;;;;;;;2.75;2.25;;;;;18.67;65.37;100592.09;5017216;28;69327;-60
2021/08/03 08:04:49;;;;;;;;;4.75;3.50;;;;;18.68;64.82;100588.41;5016994;28;45433;-60
2021/08/03 08:07:14;;;;;;;;;5.00;2.00;;;;;18.68;64.61;100585.75;5017366;28;63203;-60
2021/08/03 08:09:40;;;;;;;;;4.50;4.00;;;;;18.72;64.64;100579.03;5017202;28;62138;-59
2021/08/03 08:12:05;;;;;;;;;2.00;2.00;;;;;18.81;64.92;100583.25;5017259;28;61830;-60
2021/08/03 08:14:31;;;;;;;;;3.50;3.50;;;;;18.98;64.15;100583.03;5016776;28;70422;-59
2021/08/03 08:17:00;;;;;;;;;3.00;2.00;;;;;19.18;63.85;100577.03;5017762;28;47107;-60
2021/08/03 08:19:25;;;;;;;;;5.00;3.25;;;;;19.34;62.87;100576.78;5017675;28;45367;-60
2021/08/03 08:21:51;;;;;;;;;3.00;3.00;;;;;19.47;63.23;100580.56;5016868;28;67481;-60
2021/08/03 08:24:16;;;;;;;;;6.75;2.00;;;;;19.60;63.07;100580.66;5016965;28;65941;-61
2021/08/03 08:26:41;;;;;;;;;4.00;4.00;;;;;19.75;62.39;100577.88;5016549;28;74583;-61
2021/08/03 08:29:08;;;;;;;;;3.50;3.50;;;;;19.92;61.69;100573.06;5017427;28;45382;-60
2021/08/03 08:31:34;;;;;;;;;5.00;4.00;;;;;20.07;60.85;100569.47;5017688;28;45320;-60
2021/08/03 08:33:59;;;;;;;;;4.00;3.25;;;;;20.17;61.21;100567.22;5017103;28;45208;-60
2021/08/03 08:36:25;;;;;;;;;4.00;4.00;;;;;20.33;60.67;100562.56;5016525;28;74254;-60
2021/08/03 08:38:50;;;;;;;;;5.75;4.00;;;;;20.44;59.44;100557.47;5016423;28;73180;-60
2021/08/03 08:41:16;;;;;;;;;3.00;3.00;;;;;20.54;59.73;100562.44;5016588;28;69105;-60
2021/08/03 08:43:41;;;;;;;;;4.00;3.25;;;;;20.66;58.97;100560.00;5016962;28;61536;-60
2021/08/03 08:46:07;;;;;;;;;4.00;4.00;;;;;20.81;59.32;100565.19;5017318;28;50833;-61
2021/08/03 08:48:33;;;;;;;;;3.00;3.00;;;;;21.01;58.06;100570.53;5015994;28;45269;-61
2021/08/03 08:50:58;;;;;;;;;3.00;3.00;;;;;21.13;57.45;100570.75;5015574;28;60755;-60
2021/08/03 08:53:25;;;;;;;;;3.00;3.00;;;;;21.24;57.52;100576.50;5016943;28;55131;-60
2021/08/03 08:55:50;;;;;;;;;6.75;5.00;;;;;21.33;57.59;100576.09;5017240;28;45352;-61
2021/08/03 08:58:15;;;;;;;;;4.75;4.00;;;;;21.46;56.24;100577.13;5016319;28;69320;-60
2021/08/03 09:00:41;;;;;;;;;1.25;1.25;;;;;21.49;55.90;100574.00;5016039;28;69563;-60
2021/08/03 09:03:06;;;;;;;;;3.00;3.00;;;;;21.45;55.20;100570.94;5016767;28;55038;-60
2021/08/03 09:05:33;;;;;;;;;3.00;3.00;;;;;21.39;55.74;100577.13;5016283;28;69210;-60
2021/08/03 09:08:01;;;;;;;;;3.00;3.00;;;;;21.39;55.05;100579.78;5017023;28;45402;-60
2021/08/03 09:10:42;;;;;;;;;2.75;2.75;;;;;21.41;56.17;100571.56;5017045;28;45303;-60
2021/08/03 09:13:14;;;;;;;;;3.50;3.00;;;;;21.49;54.54;100566.00;5017203;28;45335;-59
2021/08/03 09:15:41;;;;;;;;;2.25;2.00;;;;;21.62;54.98;100570.53;5017017;28;46412;-61
2021/08/03 09:18:14;;;;;;;;;2.25;2.25;;;;;21.81;53.47;100570.69;5016980;28;45343;-61
2021/08/03 09:20:40;;;;;;;;;2.00;2.00;;;;;22.00;53.80;100572.50;5017199;28;45502;-60
2021/08/03 09:23:05;;;;;;;;;4.00;4.00;;;;;22.22;53.52;100574.91;5017066;28;45416;-60
2021/08/03 09:25:30;;;;;;;;;5.00;3.00;;;;;22.34;51.51;100577.72;5015609;28;72048;-61
2021/08/03 09:28:08;;;;;;;;;4.00;2.50;;;;;22.33;51.25;100571.53;5016596;28;45335;-61
2021/08/03 09:30:37;;;;;;;;;2.50;2.50;;;;;22.35;50.00;100569.44;5016883;28;45457;-61
2021/08/03 09:33:04;;;;;;;;;5.25;5.00;;;;;22.39;50.12;100567.19;5016741;28;45511;-61
2021/08/03 09:35:30;;;;;;;;;3.75;3.75;;;;;22.53;50.14;100565.28;5015957;28;45562;-60
2021/08/03 09:37:55;;;;;;;;;2.50;2.50;;;;;22.73;51.09;100559.00;5016189;28;45347;-60
2021/08/03 09:40:25;;;;;;;;;3.25;3.25;;;;;22.88;49.74;100567.50;5015488;28;45355;-61
2021/08/03 09:42:59;;;;;;;;;4.00;4.00;;;;;22.95;48.46;100575.53;5016562;28;45340;-61
2021/08/03 09:45:25;;;;;;;;;3.50;2.00;;;;;22.92;48.23;100576.75;5014993;28;48256;-60
2021/08/03 09:47:51;;;;;;;;;2.00;2.00;;;;;22.87;48.08;100579.28;5015098;28;45384;-61
2021/08/03 09:50:17;;;;;;;;;4.25;4.00;;;;;22.81;48.03;100577.44;5014400;28;66116;-60
2021/08/03 09:52:43;;;;;;;;;2.00;2.00;;;;;22.68;48.26;100573.84;5016232;28;51334;-60
2021/08/03 09:55:15;;;;;;;;;3.75;3.75;;;;;22.65;49.11;100579.63;5016099;28;45360;-60
2021/08/03 09:57:41;;;;;;;;;3.00;2.00;;;;;22.69;47.97;100574.66;5016410;28;45301;-60
2021/08/03 10:00:36;;;;;;;;;2.75;2.75;;;;;22.77;47.68;100571.72;5016320;28;45376;-60
2021/08/03 10:03:01;;;;;;;;;2.00;2.00;;;;;22.89;47.62;100566.47;5015384;28;45373;-61
2021/08/03 10:05:26;;;;;;;;;3.00;2.75;;;;;22.95;48.19;100557.56;5016086;28;52947;-61
2021/08/03 10:07:53;;;;;;;;;5.00;2.00;;;;;23.05;48.52;100553.59;5014825;28;69767;-61
2021/08/03 10:10:19;;;;;;;;;2.75;2.75;;;;;23.14;46.76;100557.66;5014365;28;49057;-61
2021/08/03 10:12:44;;;;;;;;;2.75;2.75;;;;;23.15;46.38;100550.41;5015174;28;68931;-61
2021/08/03 10:15:10;;;;;;;;;3.00;3.00;;;;;23.20;45.88;100551.41;4998280;28;45998;-60
2021/08/03 10:17:36;;;;;;;;;3.25;2.00;;;;;23.20;46.18;100559.44;5016005;28;45912;-60
2021/08/03 10:20:02;;;;;;;;;3.25;3.25;;;;;23.24;46.65;100552.66;5016144;28;45324;-60
2021/08/03 10:22:29;;;;;;;;;2.00;2.00;;;;;23.33;46.50;100546.97;5016125;28;45246;-60
2021/08/03 10:25:11;;;;;;;;;3.25;2.50;;;;;23.47;46.56;100548.50;5015066;28;45898;-60
2021/08/03 10:27:50;;;;;;;;;2.25;2.25;;;;;23.69;46.25;100556.13;5016037;28;45797;-61
2021/08/03 10:30:27;;;;;;;;;2.75;2.75;;;;;23.90;45.28;100560.22;5016214;28;45390;-61
2021/08/03 10:32:53;;;;;;;;;3.25;3.25;;;;;24.05;45.25;100546.44;5016149;28;45350;-60
2021/08/03 10:35:19;;;;;;;;;4.00;4.00;;;;;24.19;44.78;100551.63;5015492;28;45365;-60
2021/08/03 10:37:59;;;;;;;;;4.50;2.75;;;;;24.25;44.45;100553.41;5015991;28;45531;-60
2021/08/03 10:40:49;;;;;;;;;3.50;3.00;;;;;24.24;44.99;100557.97;5016130;28;45709;-61
2021/08/03 10:43:15;;;;;;;;;4.25;3.00;;;;;24.18;44.79;100555.38;5015954;28;45399;-61
2021/08/03 10:45:40;;;;;;;;;2.50;2.25;;;;;24.05;44.38;100554.47;5015907;28;46408;-60
2021/08/03 10:48:06;;;;;;;;;3.25;3.00;;;;;23.88;44.66;100564.16;5015328;28;50519;-61
2021/08/03 10:50:32;;;;;;;;;3.00;3.00;;;;;23.70;45.13;100561.25;5014817;28;67746;-60
2021/08/03 10:52:58;;;;;;;;;1.00;0.75;;;;;23.51;44.96;100562.28;5015886;28;45388;-60
2021/08/03 10:55:34;;;;;;;;;4.00;3.50;;;;;23.32;46.00;100562.25;5015522;28;45411;-60
2021/08/03 10:58:08;;;;;;;;;5.00;5.00;;;;;23.10;47.81;100545.72;5016638;28;45709;-61
2021/08/03 11:00:39;;;;;;;;;3.00;2.50;;;;;22.91;48.38;100542.16;5018934;28;45252;-60
2021/08/03 11:03:05;;;;;;;;;3.00;3.00;;;;;22.75;49.12;100551.56;5019174;28;45403;-62
2021/08/03 11:05:30;;;;;;;;;4.00;4.00;;;;;22.62;49.90;100547.94;5000030;28;74535;-61
2021/08/03 11:07:56;;;;;;;;;3.50;2.75;;;;;22.56;49.37;100559.50;5018957;28;45333;-61
2021/08/03 11:10:21;;;;;;;;;3.00;3.00;;;;;22.58;49.27;100565.47;5018797;28;45453;-61
2021/08/03 11:12:51;;;;;;;;;4.75;4.75;;;;;22.63;49.15;100565.63;5018951;28;45324;-60
2021/08/03 11:15:22;;;;;;;;;5.50;4.00;;;;;22.63;48.75;100562.13;5018237;28;46366;-60
2021/08/03 11:18:10;;;;;;;;;4.25;4.00;;;;;22.67;49.10;100557.97;5018913;28;45316;-61
2021/08/03 11:20:41;;;;;;;;;4.75;4.75;;;;;22.73;48.67;100569.69;5018988;28;45221;-60
2021/08/03 11:23:08;;;;;;;;;3.00;3.00;;;;;22.79;48.45;100566.97;5018693;28;45456;-61
2021/08/03 11:25:34;;;;;;;;;4.50;4.00;;;;;22.90;48.63;100561.97;5018563;28;46120;-61
2021/08/03 11:28:26;;;;;;;;;4.75;3.00;;;;;23.06;47.62;100558.72;5018616;28;45359;-61